sensor_id;sensor_type;location;lat;lon;timestamp;temperature;humidity
32965;DHT22;19317;48.226;11.686;2023-05-29T00:03:22;16.20;99.90
32965;DHT22;19317;48.226;11.686;2023-05-29T00:08:12;16.50;99.90
32965;DHT22;19317;48.226;11.686;2023-05-29T00:13:03;16.30;99.90
32965;DHT22;19317;48.226;11.686;2023-05-29T00:17:53;16.30;99.90
32965;DHT22;19317;48.226;11.686;2023-05-29T00:22:44;16.30;99.90
32965;DHT22;19317;48.226;11.686;2023-05-29T00:27:35;16.40;99.90
32965;DHT22;19317;48.226;11.686;2023-05-29T00:32:25;16.10;99.90
32965;DHT22;19317;48.226;11.686;2023-05-29T00:37:16;15.90;99.90
32965;DHT22;19317;48.226;11.686;2023-05-29T00:42:06;16.00;99.90
32965;DHT22;19317;48.226;11.686;2023-05-29T00:46:57;16.10;99.90
32965;DHT22;19317;48.226;11.686;2023-05-29T00:51:48;15.90;99.90
32965;DHT22;19317;48.226;11.686;2023-05-29T00:56:40;15.80;99.90
32965;DHT22;19317;48.226;11.686;2023-05-29T01:01:31;15.90;99.90
32965;DHT22;19317;48.226;11.686;2023-05-29T01:06:23;15.80;99.90
32965;DHT22;19317;48.226;11.686;2023-05-29T01:11:31;15.70;99.90
32965;DHT22;19317;48.226;11.686;2023-05-29T01:16:35;15.50;99.90
32965;DHT22;19317;48.226;11.686;2023-05-29T01:26:58;15.20;99.90
32965;DHT22;19317;48.226;11.686;2023-05-29T01:31:51;15.30;99.90
32965;DHT22;19317;48.226;11.686;2023-05-29T01:36:42;15.40;99.90
32965;DHT22;19317;48.226;11.686;2023-05-29T01:41:33;15.20;99.90
32965;DHT22;19317;48.226;11.686;2023-05-29T01:46:24;15.00;99.90
32965;DHT22;19317;48.226;11.686;2023-05-29T01:51:15;15.00;99.90
32965;DHT22;19317;48.226;11.686;2023-05-29T01:56:06;15.10;99.90
32965;DHT22;19317;48.226;11.686;2023-05-29T02:00:58;14.90;99.90
32965;DHT22;19317;48.226;11.686;2023-05-29T02:05:48;14.90;99.90
32965;DHT22;19317;48.226;11.686;2023-05-29T02:10:39;14.60;99.90
32965;DHT22;19317;48.226;11.686;2023-05-29T02:15:29;14.10;99.90
32965;DHT22;19317;48.226;11.686;2023-05-29T02:20:20;13.90;99.90
32965;DHT22;19317;48.226;11.686;2023-05-29T02:25:10;14.40;99.90
32965;DHT22;19317;48.226;11.686;2023-05-29T02:30:01;14.50;99.90
32965;DHT22;19317;48.226;11.686;2023-05-29T02:34:51;14.40;99.90
32965;DHT22;19317;48.226;11.686;2023-05-29T02:39:42;14.60;99.90
32965;DHT22;19317;48.226;11.686;2023-05-29T02:44:32;14.60;99.90
32965;DHT22;19317;48.226;11.686;2023-05-29T02:49:22;14.30;99.90
32965;DHT22;19317;48.226;11.686;2023-05-29T02:54:13;14.10;99.90
32965;DHT22;19317;48.226;11.686;2023-05-29T02:59:03;13.70;99.90
32965;DHT22;19317;48.226;11.686;2023-05-29T03:03:54;13.70;99.90
32965;DHT22;19317;48.226;11.686;2023-05-29T03:08:44;13.80;99.90
32965;DHT22;19317;48.226;11.686;2023-05-29T03:13:35;14.00;99.90
32965;DHT22;19317;48.226;11.686;2023-05-29T03:18:25;14.50;99.90
32965;DHT22;19317;48.226;11.686;2023-05-29T03:23:15;13.90;99.90
32965;DHT22;19317;48.226;11.686;2023-05-29T03:28:06;14.10;99.90
32965;DHT22;19317;48.226;11.686;2023-05-29T03:32:56;14.00;99.90
32965;DHT22;19317;48.226;11.686;2023-05-29T03:37:47;14.00;99.90
32965;DHT22;19317;48.226;11.686;2023-05-29T03:42:37;13.70;99.90
32965;DHT22;19317;48.226;11.686;2023-05-29T03:47:28;13.60;99.90
32965;DHT22;19317;48.226;11.686;2023-05-29T03:52:18;13.40;99.90
32965;DHT22;19317;48.226;11.686;2023-05-29T03:57:08;13.70;99.90
32965;DHT22;19317;48.226;11.686;2023-05-29T04:01:59;13.70;99.90
32965;DHT22;19317;48.226;11.686;2023-05-29T04:06:49;13.90;99.90
32965;DHT22;19317;48.226;11.686;2023-05-29T04:11:40;13.80;99.90
32965;DHT22;19317;48.226;11.686;2023-05-29T04:16:30;13.80;99.90
32965;DHT22;19317;48.226;11.686;2023-05-29T04:21:21;14.20;99.90
32965;DHT22;19317;48.226;11.686;2023-05-29T04:26:12;13.90;99.90
32965;DHT22;19317;48.226;11.686;2023-05-29T04:31:02;13.90;99.90
32965;DHT22;19317;48.226;11.686;2023-05-29T04:35:53;13.80;99.90
32965;DHT22;19317;48.226;11.686;2023-05-29T04:40:43;14.00;99.90
32965;DHT22;19317;48.226;11.686;2023-05-29T04:45:33;14.10;99.90
32965;DHT22;19317;48.226;11.686;2023-05-29T04:50:24;14.20;99.90
32965;DHT22;19317;48.226;11.686;2023-05-29T04:55:14;14.40;99.90
32965;DHT22;19317;48.226;11.686;2023-05-29T05:00:05;14.40;99.90
32965;DHT22;19317;48.226;11.686;2023-05-29T05:04:56;14.40;99.90
32965;DHT22;19317;48.226;11.686;2023-05-29T05:09:47;14.50;99.90
32965;DHT22;19317;48.226;11.686;2023-05-29T05:14:37;14.60;99.90
32965;DHT22;19317;48.226;11.686;2023-05-29T05:19:28;14.80;99.90
32965;DHT22;19317;48.226;11.686;2023-05-29T05:24:19;14.80;99.90
32965;DHT22;19317;48.226;11.686;2023-05-29T05:29:09;15.00;99.90
32965;DHT22;19317;48.226;11.686;2023-05-29T05:34:00;15.20;99.90
32965;DHT22;19317;48.226;11.686;2023-05-29T05:38:50;15.20;99.90
32965;DHT22;19317;48.226;11.686;2023-05-29T05:43:41;15.30;99.90
32965;DHT22;19317;48.226;11.686;2023-05-29T05:48:31;15.40;99.90
32965;DHT22;19317;48.226;11.686;2023-05-29T05:53:21;15.60;99.90
32965;DHT22;19317;48.226;11.686;2023-05-29T05:58:12;15.60;99.90
32965;DHT22;19317;48.226;11.686;2023-05-29T06:03:02;15.70;99.90
32965;DHT22;19317;48.226;11.686;2023-05-29T06:07:53;15.70;99.90
32965;DHT22;19317;48.226;11.686;2023-05-29T06:12:43;15.90;99.90
32965;DHT22;19317;48.226;11.686;2023-05-29T06:17:34;15.90;99.90
32965;DHT22;19317;48.226;11.686;2023-05-29T06:22:24;15.90;99.90
32965;DHT22;19317;48.226;11.686;2023-05-29T06:27:15;16.30;99.90
32965;DHT22;19317;48.226;11.686;2023-05-29T06:32:05;16.30;99.90
32965;DHT22;19317;48.226;11.686;2023-05-29T06:36:56;16.50;99.90
32965;DHT22;19317;48.226;11.686;2023-05-29T06:41:46;16.80;99.90
32965;DHT22;19317;48.226;11.686;2023-05-29T06:46:37;16.90;99.90
32965;DHT22;19317;48.226;11.686;2023-05-29T06:51:27;16.90;99.90
32965;DHT22;19317;48.226;11.686;2023-05-29T06:56:18;16.70;99.90
32965;DHT22;19317;48.226;11.686;2023-05-29T07:01:08;16.80;99.90
32965;DHT22;19317;48.226;11.686;2023-05-29T07:05:58;16.70;99.90
32965;DHT22;19317;48.226;11.686;2023-05-29T07:10:49;16.80;99.90
32965;DHT22;19317;48.226;11.686;2023-05-29T07:15:39;17.60;99.90
32965;DHT22;19317;48.226;11.686;2023-05-29T07:20:30;17.20;99.90
32965;DHT22;19317;48.226;11.686;2023-05-29T07:25:20;17.30;99.90
32965;DHT22;19317;48.226;11.686;2023-05-29T07:30:11;17.30;99.90
32965;DHT22;19317;48.226;11.686;2023-05-29T07:35:02;17.40;99.90
32965;DHT22;19317;48.226;11.686;2023-05-29T07:39:52;17.40;99.90
32965;DHT22;19317;48.226;11.686;2023-05-29T07:44:44;17.50;99.90
32965;DHT22;19317;48.226;11.686;2023-05-29T07:49:35;17.80;99.90
32965;DHT22;19317;48.226;11.686;2023-05-29T07:54:26;17.80;99.90
32965;DHT22;19317;48.226;11.686;2023-05-29T07:59:16;18.00;99.90
32965;DHT22;19317;48.226;11.686;2023-05-29T08:04:06;18.20;99.90
32965;DHT22;19317;48.226;11.686;2023-05-29T08:08:57;18.40;99.90
32965;DHT22;19317;48.226;11.686;2023-05-29T08:13:47;18.40;99.90
32965;DHT22;19317;48.226;11.686;2023-05-29T08:18:38;18.70;99.90
32965;DHT22;19317;48.226;11.686;2023-05-29T08:23:28;18.60;99.90
32965;DHT22;19317;48.226;11.686;2023-05-29T08:28:19;18.90;99.90
32965;DHT22;19317;48.226;11.686;2023-05-29T08:33:09;19.00;99.90
32965;DHT22;19317;48.226;11.686;2023-05-29T08:38:00;19.20;99.90
32965;DHT22;19317;48.226;11.686;2023-05-29T08:48:00;19.60;99.90
32965;DHT22;19317;48.226;11.686;2023-05-29T08:52:51;19.60;99.90
32965;DHT22;19317;48.226;11.686;2023-05-29T08:57:42;19.60;99.90
32965;DHT22;19317;48.226;11.686;2023-05-29T09:02:32;19.90;99.90
32965;DHT22;19317;48.226;11.686;2023-05-29T09:07:23;20.00;99.90
32965;DHT22;19317;48.226;11.686;2023-05-29T09:12:14;20.00;99.90
32965;DHT22;19317;48.226;11.686;2023-05-29T09:17:05;20.20;99.90
32965;DHT22;19317;48.226;11.686;2023-05-29T09:22:05;20.30;99.90
32965;DHT22;19317;48.226;11.686;2023-05-29T09:26:59;20.60;99.90
32965;DHT22;19317;48.226;11.686;2023-05-29T09:31:50;20.60;99.90
32965;DHT22;19317;48.226;11.686;2023-05-29T09:36:40;20.70;99.90
32965;DHT22;19317;48.226;11.686;2023-05-29T09:41:31;20.70;99.90
32965;DHT22;19317;48.226;11.686;2023-05-29T09:46:21;20.90;99.90
32965;DHT22;19317;48.226;11.686;2023-05-29T09:51:20;21.20;99.90
32965;DHT22;19317;48.226;11.686;2023-05-29T09:56:11;21.20;99.90
32965;DHT22;19317;48.226;11.686;2023-05-29T10:01:02;21.20;99.90
32965;DHT22;19317;48.226;11.686;2023-05-29T10:05:55;21.20;99.90
32965;DHT22;19317;48.226;11.686;2023-05-29T10:10:59;21.50;99.90
32965;DHT22;19317;48.226;11.686;2023-05-29T10:15:51;21.50;99.90
32965;DHT22;19317;48.226;11.686;2023-05-29T10:20:43;21.50;99.90
32965;DHT22;19317;48.226;11.686;2023-05-29T10:25:36;21.70;99.90
32965;DHT22;19317;48.226;11.686;2023-05-29T10:31:01;21.90;99.90
32965;DHT22;19317;48.226;11.686;2023-05-29T10:36:18;21.90;99.90
32965;DHT22;19317;48.226;11.686;2023-05-29T10:46:14;22.00;99.90
32965;DHT22;19317;48.226;11.686;2023-05-29T10:51:06;22.20;99.90
32965;DHT22;19317;48.226;11.686;2023-05-29T10:55:59;22.10;99.90
32965;DHT22;19317;48.226;11.686;2023-05-29T11:00:50;21.80;99.90
32965;DHT22;19317;48.226;11.686;2023-05-29T11:06:17;22.30;99.90
32965;DHT22;19317;48.226;11.686;2023-05-29T11:11:15;22.60;99.90
32965;DHT22;19317;48.226;11.686;2023-05-29T11:26:30;22.30;99.90
32965;DHT22;19317;48.226;11.686;2023-05-29T11:31:21;22.20;99.90
32965;DHT22;19317;48.226;11.686;2023-05-29T11:36:11;22.20;99.90
32965;DHT22;19317;48.226;11.686;2023-05-29T11:41:02;22.50;99.90
32965;DHT22;19317;48.226;11.686;2023-05-29T11:45:53;22.80;99.90
32965;DHT22;19317;48.226;11.686;2023-05-29T11:50:43;22.90;99.90
32965;DHT22;19317;48.226;11.686;2023-05-29T11:55:34;23.00;99.90
32965;DHT22;19317;48.226;11.686;2023-05-29T12:00:25;23.00;99.90
32965;DHT22;19317;48.226;11.686;2023-05-29T12:05:16;22.90;99.90
32965;DHT22;19317;48.226;11.686;2023-05-29T12:10:14;23.00;99.90
32965;DHT22;19317;48.226;11.686;2023-05-29T12:15:06;23.30;99.90
32965;DHT22;19317;48.226;11.686;2023-05-29T12:19:57;23.10;99.80
32965;DHT22;19317;48.226;11.686;2023-05-29T12:24:47;23.40;99.50
32965;DHT22;19317;48.226;11.686;2023-05-29T12:29:38;23.40;99.00
32965;DHT22;19317;48.226;11.686;2023-05-29T12:34:34;23.00;98.90
32965;DHT22;19317;48.226;11.686;2023-05-29T12:39:24;23.40;98.60
32965;DHT22;19317;48.226;11.686;2023-05-29T12:44:15;23.60;97.90
32965;DHT22;19317;48.226;11.686;2023-05-29T12:49:18;23.70;97.70
32965;DHT22;19317;48.226;11.686;2023-05-29T12:54:10;23.60;96.50
32965;DHT22;19317;48.226;11.686;2023-05-29T12:59:01;23.80;97.80
32965;DHT22;19317;48.226;11.686;2023-05-29T13:03:51;23.90;98.20
32965;DHT22;19317;48.226;11.686;2023-05-29T13:08:42;24.10;96.80
32965;DHT22;19317;48.226;11.686;2023-05-29T13:13:32;24.10;96.10
32965;DHT22;19317;48.226;11.686;2023-05-29T13:18:23;24.10;96.20
32965;DHT22;19317;48.226;11.686;2023-05-29T13:23:13;24.30;98.10
32965;DHT22;19317;48.226;11.686;2023-05-29T13:28:04;24.20;97.00
32965;DHT22;19317;48.226;11.686;2023-05-29T13:32:54;24.40;97.10
32965;DHT22;19317;48.226;11.686;2023-05-29T13:37:44;24.30;96.30
32965;DHT22;19317;48.226;11.686;2023-05-29T13:42:35;24.40;96.60
32965;DHT22;19317;48.226;11.686;2023-05-29T13:47:26;24.40;95.10
32965;DHT22;19317;48.226;11.686;2023-05-29T13:52:16;24.60;94.60
32965;DHT22;19317;48.226;11.686;2023-05-29T13:57:07;24.20;95.00
32965;DHT22;19317;48.226;11.686;2023-05-29T14:01:57;24.80;94.80
32965;DHT22;19317;48.226;11.686;2023-05-29T14:06:48;25.00;95.90
32965;DHT22;19317;48.226;11.686;2023-05-29T14:11:39;24.90;94.60
32965;DHT22;19317;48.226;11.686;2023-05-29T14:16:30;25.00;95.90
32965;DHT22;19317;48.226;11.686;2023-05-29T14:21:20;25.40;96.60
32965;DHT22;19317;48.226;11.686;2023-05-29T14:26:11;25.20;95.30
32965;DHT22;19317;48.226;11.686;2023-05-29T14:31:01;25.40;95.20
32965;DHT22;19317;48.226;11.686;2023-05-29T14:35:52;25.10;94.90
32965;DHT22;19317;48.226;11.686;2023-05-29T14:40:42;25.10;95.10
32965;DHT22;19317;48.226;11.686;2023-05-29T14:45:36;25.20;95.60
32965;DHT22;19317;48.226;11.686;2023-05-29T14:50:26;25.40;94.40
32965;DHT22;19317;48.226;11.686;2023-05-29T14:55:17;25.40;94.70
32965;DHT22;19317;48.226;11.686;2023-05-29T15:00:07;25.90;94.10
32965;DHT22;19317;48.226;11.686;2023-05-29T15:04:58;25.80;93.60
32965;DHT22;19317;48.226;11.686;2023-05-29T15:09:49;25.20;91.60
32965;DHT22;19317;48.226;11.686;2023-05-29T15:14:39;26.20;93.20
32965;DHT22;19317;48.226;11.686;2023-05-29T15:19:30;26.40;92.40
32965;DHT22;19317;48.226;11.686;2023-05-29T15:24:21;26.10;93.40
32965;DHT22;19317;48.226;11.686;2023-05-29T15:29:11;26.00;92.00
32965;DHT22;19317;48.226;11.686;2023-05-29T15:34:02;26.20;91.30
32965;DHT22;19317;48.226;11.686;2023-05-29T15:38:52;24.80;90.20
32965;DHT22;19317;48.226;11.686;2023-05-29T15:43:43;25.70;91.10
32965;DHT22;19317;48.226;11.686;2023-05-29T15:48:33;26.40;90.50
32965;DHT22;19317;48.226;11.686;2023-05-29T15:53:24;26.40;90.40
32965;DHT22;19317;48.226;11.686;2023-05-29T15:58:14;25.50;88.60
32965;DHT22;19317;48.226;11.686;2023-05-29T16:03:05;25.70;90.00
32965;DHT22;19317;48.226;11.686;2023-05-29T16:07:56;26.40;89.20
32965;DHT22;19317;48.226;11.686;2023-05-29T16:12:47;26.60;87.80
32965;DHT22;19317;48.226;11.686;2023-05-29T16:17:38;26.60;85.30
32965;DHT22;19317;48.226;11.686;2023-05-29T16:22:28;26.80;87.10
32965;DHT22;19317;48.226;11.686;2023-05-29T16:27:19;26.90;87.60
32965;DHT22;19317;48.226;11.686;2023-05-29T16:32:10;26.70;86.40
32965;DHT22;19317;48.226;11.686;2023-05-29T16:37:00;26.50;86.50
32965;DHT22;19317;48.226;11.686;2023-05-29T16:41:51;26.90;86.70
32965;DHT22;19317;48.226;11.686;2023-05-29T16:46:41;26.90;86.80
32965;DHT22;19317;48.226;11.686;2023-05-29T16:51:32;26.90;86.90
32965;DHT22;19317;48.226;11.686;2023-05-29T16:56:22;26.90;87.50
32965;DHT22;19317;48.226;11.686;2023-05-29T17:01:13;26.90;88.90
32965;DHT22;19317;48.226;11.686;2023-05-29T17:06:04;26.20;89.40
32965;DHT22;19317;48.226;11.686;2023-05-29T17:10:54;26.60;89.40
32965;DHT22;19317;48.226;11.686;2023-05-29T17:15:45;26.30;88.40
32965;DHT22;19317;48.226;11.686;2023-05-29T17:20:35;26.40;89.40
32965;DHT22;19317;48.226;11.686;2023-05-29T17:25:26;26.30;89.40
32965;DHT22;19317;48.226;11.686;2023-05-29T17:30:16;26.30;89.30
32965;DHT22;19317;48.226;11.686;2023-05-29T17:35:07;26.30;90.30
32965;DHT22;19317;48.226;11.686;2023-05-29T17:39:58;26.20;90.70
32965;DHT22;19317;48.226;11.686;2023-05-29T17:44:48;25.70;89.80
32965;DHT22;19317;48.226;11.686;2023-05-29T17:49:39;25.90;90.00
32965;DHT22;19317;48.226;11.686;2023-05-29T17:54:29;25.70;90.20
32965;DHT22;19317;48.226;11.686;2023-05-29T17:59:20;25.60;89.70
32965;DHT22;19317;48.226;11.686;2023-05-29T18:04:10;25.50;89.40
32965;DHT22;19317;48.226;11.686;2023-05-29T18:09:01;25.60;89.50
32965;DHT22;19317;48.226;11.686;2023-05-29T18:13:51;24.90;90.00
32965;DHT22;19317;48.226;11.686;2023-05-29T18:18:42;25.00;91.00
32965;DHT22;19317;48.226;11.686;2023-05-29T18:23:32;25.10;91.70
32965;DHT22;19317;48.226;11.686;2023-05-29T18:28:23;24.90;91.90
32965;DHT22;19317;48.226;11.686;2023-05-29T18:33:13;24.80;92.00
32965;DHT22;19317;48.226;11.686;2023-05-29T18:38:04;24.70;92.20
32965;DHT22;19317;48.226;11.686;2023-05-29T18:42:54;24.50;92.20
32965;DHT22;19317;48.226;11.686;2023-05-29T18:47:45;24.40;92.80
32965;DHT22;19317;48.226;11.686;2023-05-29T18:52:35;24.30;93.00
32965;DHT22;19317;48.226;11.686;2023-05-29T18:57:26;24.20;93.30
32965;DHT22;19317;48.226;11.686;2023-05-29T19:02:16;24.10;93.50
32965;DHT22;19317;48.226;11.686;2023-05-29T19:07:07;23.90;93.40
32965;DHT22;19317;48.226;11.686;2023-05-29T19:11:57;23.80;93.50
32965;DHT22;19317;48.226;11.686;2023-05-29T19:16:48;23.70;94.20
32965;DHT22;19317;48.226;11.686;2023-05-29T19:21:38;23.70;94.30
32965;DHT22;19317;48.226;11.686;2023-05-29T19:26:30;23.60;94.30
32965;DHT22;19317;48.226;11.686;2023-05-29T19:31:23;23.50;94.20
32965;DHT22;19317;48.226;11.686;2023-05-29T19:36:13;22.60;94.50
32965;DHT22;19317;48.226;11.686;2023-05-29T19:41:04;22.30;95.10
32965;DHT22;19317;48.226;11.686;2023-05-29T19:45:54;22.10;96.10
32965;DHT22;19317;48.226;11.686;2023-05-29T19:50:45;22.10;95.70
32965;DHT22;19317;48.226;11.686;2023-05-29T19:55:36;22.10;95.70
32965;DHT22;19317;48.226;11.686;2023-05-29T20:00:26;22.30;96.30
32965;DHT22;19317;48.226;11.686;2023-05-29T20:05:17;22.40;97.10
32965;DHT22;19317;48.226;11.686;2023-05-29T20:10:08;22.30;97.00
32965;DHT22;19317;48.226;11.686;2023-05-29T20:14:58;22.20;96.50
32965;DHT22;19317;48.226;11.686;2023-05-29T20:19:49;22.20;96.90
32965;DHT22;19317;48.226;11.686;2023-05-29T20:24:39;22.10;96.80
32965;DHT22;19317;48.226;11.686;2023-05-29T20:29:30;21.80;96.60
32965;DHT22;19317;48.226;11.686;2023-05-29T20:34:21;21.80;97.70
32965;DHT22;19317;48.226;11.686;2023-05-29T20:39:11;21.70;97.60
32965;DHT22;19317;48.226;11.686;2023-05-29T20:44:01;21.60;98.70
32965;DHT22;19317;48.226;11.686;2023-05-29T20:48:52;21.20;99.90
32965;DHT22;19317;48.226;11.686;2023-05-29T20:53:42;21.10;99.90
32965;DHT22;19317;48.226;11.686;2023-05-29T20:58:33;20.80;99.90
32965;DHT22;19317;48.226;11.686;2023-05-29T21:03:23;20.60;99.90
32965;DHT22;19317;48.226;11.686;2023-05-29T21:08:14;20.70;99.90
32965;DHT22;19317;48.226;11.686;2023-05-29T21:13:04;20.70;99.90
32965;DHT22;19317;48.226;11.686;2023-05-29T21:17:54;20.30;99.90
32965;DHT22;19317;48.226;11.686;2023-05-29T21:22:45;19.10;99.90
32965;DHT22;19317;48.226;11.686;2023-05-29T21:27:35;19.20;99.90
32965;DHT22;19317;48.226;11.686;2023-05-29T21:32:26;19.60;99.90
32965;DHT22;19317;48.226;11.686;2023-05-29T21:37:17;19.90;99.90
32965;DHT22;19317;48.226;11.686;2023-05-29T21:42:08;19.70;99.90
32965;DHT22;19317;48.226;11.686;2023-05-29T21:46:59;20.00;99.90
32965;DHT22;19317;48.226;11.686;2023-05-29T21:51:49;20.00;99.90
32965;DHT22;19317;48.226;11.686;2023-05-29T21:56:39;19.80;99.90
32965;DHT22;19317;48.226;11.686;2023-05-29T22:01:30;20.00;99.90
32965;DHT22;19317;48.226;11.686;2023-05-29T22:06:20;19.90;99.90
32965;DHT22;19317;48.226;11.686;2023-05-29T22:11:12;19.60;99.90
32965;DHT22;19317;48.226;11.686;2023-05-29T22:16:03;19.90;99.90
32965;DHT22;19317;48.226;11.686;2023-05-29T22:20:53;20.00;99.90
32965;DHT22;19317;48.226;11.686;2023-05-29T22:25:44;20.10;99.90
32965;DHT22;19317;48.226;11.686;2023-05-29T22:30:35;19.90;99.90
32965;DHT22;19317;48.226;11.686;2023-05-29T22:35:25;19.80;99.90
32965;DHT22;19317;48.226;11.686;2023-05-29T22:40:16;19.70;99.90
32965;DHT22;19317;48.226;11.686;2023-05-29T22:45:06;19.70;99.90
32965;DHT22;19317;48.226;11.686;2023-05-29T22:49:57;19.40;99.90
32965;DHT22;19317;48.226;11.686;2023-05-29T22:54:47;19.10;99.80
32965;DHT22;19317;48.226;11.686;2023-05-29T22:59:38;19.00;99.90
32965;DHT22;19317;48.226;11.686;2023-05-29T23:04:28;19.10;99.90
32965;DHT22;19317;48.226;11.686;2023-05-29T23:09:19;19.30;99.90
32965;DHT22;19317;48.226;11.686;2023-05-29T23:14:09;19.20;99.90
32965;DHT22;19317;48.226;11.686;2023-05-29T23:19:00;19.20;99.90
32965;DHT22;19317;48.226;11.686;2023-05-29T23:23:50;19.00;99.90
32965;DHT22;19317;48.226;11.686;2023-05-29T23:28:41;18.90;99.90
32965;DHT22;19317;48.226;11.686;2023-05-29T23:33:31;18.90;99.90
32965;DHT22;19317;48.226;11.686;2023-05-29T23:38:21;18.50;99.90
32965;DHT22;19317;48.226;11.686;2023-05-29T23:43:12;18.40;99.90
32965;DHT22;19317;48.226;11.686;2023-05-29T23:48:02;18.20;99.90
32965;DHT22;19317;48.226;11.686;2023-05-29T23:52:53;18.30;99.90
32965;DHT22;19317;48.226;11.686;2023-05-29T23:57:43;17.50;99.90
